createdAt,value
2019-01-18T00:01:21.937Z,99802.44
2019-01-18T00:03:51.442Z,99807.13
2019-01-18T00:06:20.894Z,99807.61
2019-01-18T00:08:50.390Z,99808.68
2019-01-18T00:11:19.813Z,99812.42
2019-01-18T00:13:49.200Z,99812.80
2019-01-18T00:16:18.699Z,99814.95
2019-01-18T00:18:48.156Z,99809.67
2019-01-18T00:21:17.655Z,99814.12
2019-01-18T00:23:47.218Z,99813.64
2019-01-18T00:26:16.640Z,99813.49
2019-01-18T00:28:46.031Z,99812.88
2019-01-18T00:31:15.501Z,99816.14
2019-01-18T00:33:45.000Z,99817.57
2019-01-18T00:36:14.416Z,99814.19
2019-01-18T00:38:43.948Z,99828.11
2019-01-18T00:41:13.368Z,99821.13
2019-01-18T00:43:42.914Z,99822.77
2019-01-18T00:46:12.396Z,99823.45
2019-01-18T00:48:41.835Z,99821.39
2019-01-18T00:51:11.255Z,99823.66
2019-01-18T00:53:40.629Z,99818.31
2019-01-18T00:56:10.152Z,99817.93
2019-01-18T00:58:39.663Z,99816.72
2019-01-18T01:01:09.332Z,99814.91
2019-01-18T01:03:38.863Z,99812.97
2019-01-18T01:06:08.292Z,99817.55
2019-01-18T01:08:37.675Z,99818.50
2019-01-18T01:11:07.208Z,99820.19
2019-01-18T01:13:36.694Z,99819.45
2019-01-18T01:16:06.092Z,99816.44
2019-01-18T01:18:35.587Z,99813.42
2019-01-18T01:21:05.156Z,99814.86
2019-01-18T01:23:34.564Z,99808.81
2019-01-18T01:26:04.266Z,99815.78
2019-01-18T01:28:33.798Z,99810.61
2019-01-18T01:31:03.217Z,99808.81
2019-01-18T01:33:32.606Z,99800.78
2019-01-18T01:36:02.116Z,99802.69
2019-01-18T01:38:31.516Z,99796.45
2019-01-18T01:41:01.048Z,99800.52
2019-01-18T01:43:30.629Z,99796.91
2019-01-18T01:46:00.062Z,99789.02
2019-01-18T01:48:29.458Z,99782.63
2019-01-18T01:50:58.957Z,99785.84
2019-01-18T01:53:28.480Z,99777.22
2019-01-18T01:55:57.905Z,99787.01
2019-01-18T01:58:27.438Z,99783.52
2019-01-18T02:00:56.876Z,99781.83
2019-01-18T02:03:26.258Z,99779.21
2019-01-18T02:05:55.722Z,99777.41
2019-01-18T02:08:25.247Z,99777.20
2019-01-18T02:10:54.668Z,99781.00
2019-01-18T02:13:24.124Z,99765.72
2019-01-18T02:15:53.632Z,99771.32
2019-01-18T02:18:23.021Z,99768.02
2019-01-18T02:20:52.550Z,99764.67
2019-01-18T02:23:22.070Z,99770.45
2019-01-18T02:25:51.577Z,99765.05
2019-01-18T02:28:20.999Z,99768.77
2019-01-18T02:30:50.461Z,99771.41
2019-01-18T02:33:19.941Z,99769.01
2019-01-18T02:35:49.362Z,99764.30
2019-01-18T02:38:18.885Z,99762.98
2019-01-18T02:40:48.279Z,99768.00
2019-01-18T02:43:17.689Z,99761.75
2019-01-18T02:45:47.219Z,99763.41
2019-01-18T02:48:16.712Z,99765.34
2019-01-18T02:50:46.175Z,99762.45
2019-01-18T02:53:15.591Z,99764.63
2019-01-18T02:55:45.072Z,99764.39
2019-01-18T02:58:15.803Z,99765.55
2019-01-18T03:00:45.323Z,99765.38
2019-01-18T03:03:14.859Z,99767.15
2019-01-18T03:05:44.379Z,99764.95
2019-01-18T03:08:13.767Z,99758.09
2019-01-18T03:10:43.241Z,99764.01
2019-01-18T03:13:12.769Z,99767.05
2019-01-18T03:15:42.181Z,99767.59
2019-01-18T03:18:11.740Z,99765.33
2019-01-18T03:20:41.170Z,99770.23
2019-01-18T03:23:10.567Z,99761.78
2019-01-18T03:25:40.053Z,99759.78
2019-01-18T03:28:09.518Z,99761.95
2019-01-18T03:30:38.937Z,99754.03
2019-01-18T03:33:08.481Z,99752.34
2019-01-18T03:35:37.961Z,99755.55
2019-01-18T03:38:07.444Z,99748.29
2019-01-18T03:40:36.952Z,99749.51
2019-01-18T03:43:06.503Z,99751.77
2019-01-18T03:45:35.882Z,99752.41
2019-01-18T03:48:05.273Z,99752.41
2019-01-18T03:50:34.785Z,99755.46
2019-01-18T03:53:04.319Z,99759.42
2019-01-18T03:55:33.751Z,99758.10
2019-01-18T03:58:03.195Z,99763.82
2019-01-18T04:00:32.610Z,99766.12
2019-01-18T04:03:02.048Z,99767.33
2019-01-18T04:05:31.553Z,99765.06
2019-01-18T04:08:01.043Z,99760.03
2019-01-18T04:10:30.463Z,99761.38
2019-01-18T04:12:59.931Z,99765.91
2019-01-18T04:15:29.431Z,99767.98
2019-01-18T04:17:58.892Z,99770.84
2019-01-18T04:20:28.375Z,99764.29
2019-01-18T04:22:57.873Z,99769.66
2019-01-18T04:25:31.747Z,99768.99
2019-01-18T04:28:01.205Z,99772.58
2019-01-18T04:30:33.685Z,99774.59
2019-01-18T04:33:01.884Z,99774.53
2019-01-18T04:35:31.272Z,99787.34
2019-01-18T04:38:00.777Z,99786.39
2019-01-18T04:40:30.306Z,99781.70
2019-01-18T04:42:59.854Z,99791.53
2019-01-18T04:45:29.335Z,99791.92
2019-01-18T04:47:58.842Z,99793.03
2019-01-18T04:50:29.133Z,99797.69
2019-01-18T04:52:58.560Z,99802.58
2019-01-18T04:55:28.032Z,99797.88
2019-01-18T04:57:57.433Z,99798.25
2019-01-18T05:00:28.868Z,99796.73
2019-01-18T05:02:58.443Z,99794.34
2019-01-18T05:05:27.900Z,99792.18
2019-01-18T05:07:57.347Z,99789.66
2019-01-18T05:10:28.270Z,99798.13
2019-01-18T05:12:58.042Z,99795.05
2019-01-18T05:15:32.271Z,99792.08
2019-01-18T05:18:01.732Z,99790.84
2019-01-18T05:20:31.189Z,99791.34
2019-01-18T05:23:00.622Z,99791.52
2019-01-18T05:25:30.156Z,99790.20
2019-01-18T05:27:59.610Z,99793.78
2019-01-18T05:30:30.138Z,99786.45
2019-01-18T05:32:59.541Z,99797.94
2019-01-18T05:35:29.039Z,99793.31
2019-01-18T05:37:58.520Z,99796.80
2019-01-18T05:40:28.023Z,99797.94
2019-01-18T05:42:57.539Z,99793.30
2019-01-18T05:45:27.016Z,99803.71
2019-01-18T05:47:56.445Z,99806.08
2019-01-18T05:50:30.392Z,99804.28
2019-01-18T05:53:03.194Z,99802.22
2019-01-18T05:55:32.637Z,99794.41
2019-01-18T05:58:02.305Z,99800.16
2019-01-18T06:00:39.928Z,99796.00
2019-01-18T06:03:09.356Z,99790.25
2019-01-18T06:05:40.768Z,99794.42
2019-01-18T06:08:10.276Z,99802.07
2019-01-18T06:10:39.720Z,99804.88
2019-01-18T06:13:09.183Z,99801.80
2019-01-18T06:15:38.672Z,99808.13
2019-01-18T06:18:08.081Z,99801.83
2019-01-18T06:20:37.564Z,99804.19
2019-01-18T06:23:07.032Z,99805.97
2019-01-18T06:25:36.459Z,99808.72
2019-01-18T06:28:05.946Z,99813.73
2019-01-18T06:30:35.516Z,99812.37
2019-01-18T06:33:05.124Z,99811.69
2019-01-18T06:35:34.536Z,99817.89
2019-01-18T06:38:04.012Z,99814.56
2019-01-18T06:40:33.434Z,99817.22
2019-01-18T06:43:02.887Z,99818.22
2019-01-18T06:45:33.106Z,99823.81
2019-01-18T06:48:02.763Z,99827.42
2019-01-18T06:50:32.169Z,99828.52
2019-01-18T06:53:01.591Z,99832.52
2019-01-18T06:55:31.141Z,99829.28
2019-01-18T06:58:00.642Z,99825.83
2019-01-18T07:00:32.302Z,99825.48
2019-01-18T07:03:02.041Z,99835.84
2019-01-18T07:05:31.520Z,99825.13
2019-01-18T07:08:01.121Z,99829.71
2019-01-18T07:10:30.770Z,99839.58
2019-01-18T07:13:00.335Z,99842.72
2019-01-18T07:15:29.724Z,99843.80
2019-01-18T07:17:59.448Z,99845.47
2019-01-18T07:20:28.844Z,99846.81
2019-01-18T07:22:58.316Z,99847.77
2019-01-18T07:25:32.191Z,99845.80
2019-01-18T07:28:01.773Z,99843.84
2019-01-18T07:30:42.395Z,99843.34
2019-01-18T07:33:13.692Z,99855.98
2019-01-18T07:35:43.214Z,99852.30
2019-01-18T07:38:12.798Z,99850.98
2019-01-18T07:40:42.398Z,99851.42
2019-01-18T07:43:12.009Z,99854.36
2019-01-18T07:45:41.619Z,99843.97
2019-01-18T07:48:11.126Z,99843.20
2019-01-18T07:50:40.626Z,99840.69
2019-01-18T07:53:10.221Z,99840.75
2019-01-18T07:55:39.674Z,99839.72
2019-01-18T07:58:09.139Z,99849.61
2019-01-18T08:00:38.563Z,99849.11
2019-01-18T08:03:07.941Z,99851.55
2019-01-18T08:05:37.450Z,99855.52
2019-01-18T08:08:06.889Z,99853.05
2019-01-18T08:10:36.597Z,99854.72
2019-01-18T08:13:06.213Z,99852.00
2019-01-18T08:15:35.713Z,99853.00
2019-01-18T08:18:05.236Z,99860.16
2019-01-18T08:20:34.855Z,99862.41
2019-01-18T08:23:04.299Z,99868.11
2019-01-18T08:25:33.753Z,99871.32
2019-01-18T08:28:03.992Z,99858.72
2019-01-18T08:30:33.559Z,99868.78
2019-01-18T08:33:03.045Z,99868.86
2019-01-18T08:35:32.733Z,99868.73
2019-01-18T08:38:02.263Z,99871.13
2019-01-18T08:40:39.543Z,99876.02
2019-01-18T08:43:14.103Z,99872.28
2019-01-18T08:46:04.988Z,99869.45
2019-01-18T08:48:34.515Z,99860.75
2019-01-18T08:51:03.966Z,99863.48
2019-01-18T08:53:33.779Z,99866.25
2019-01-18T08:56:03.305Z,99858.33
2019-01-18T08:58:32.686Z,99859.74
2019-01-18T09:01:02.164Z,99861.04
2019-01-18T09:03:31.659Z,99858.14
2019-01-18T09:06:01.084Z,99855.43
2019-01-18T09:08:30.621Z,99852.27
2019-01-18T09:11:00.120Z,99849.68
2019-01-18T09:13:29.601Z,99845.81
2019-01-18T09:15:59.273Z,99847.20
2019-01-18T09:18:28.754Z,99837.96
2019-01-18T09:20:58.181Z,99833.72
2019-01-18T09:23:27.640Z,99834.98
2019-01-18T09:25:57.128Z,99830.48
2019-01-18T09:28:26.571Z,99826.49
2019-01-18T09:30:55.994Z,99820.34
2019-01-18T09:33:25.512Z,99818.03
2019-01-18T09:35:55.000Z,99814.59
2019-01-18T09:38:24.390Z,99807.88
2019-01-18T09:40:53.897Z,99800.33
2019-01-18T09:43:23.531Z,99806.06
2019-01-18T09:45:52.958Z,99801.59
2019-01-18T09:48:22.367Z,99800.20
2019-01-18T09:50:52.053Z,99797.13
2019-01-18T09:53:21.525Z,99795.93
2019-01-18T09:55:50.912Z,99792.83
2019-01-18T09:58:20.383Z,99791.33
2019-01-18T10:00:49.768Z,99789.95
2019-01-18T10:03:19.187Z,99792.18
2019-01-18T10:05:48.643Z,99777.14
2019-01-18T10:08:18.079Z,99776.17
2019-01-18T10:10:47.465Z,99768.13
2019-01-18T10:13:16.920Z,99769.13
2019-01-18T10:15:47.394Z,99759.84
2019-01-18T10:18:17.090Z,99760.96
2019-01-18T10:20:46.614Z,99756.90
2019-01-18T10:23:16.056Z,99752.75
2019-01-18T10:25:45.492Z,99745.88
2019-01-18T10:28:14.898Z,99736.95
2019-01-18T10:30:44.471Z,99725.14
2019-01-18T10:33:13.995Z,99727.66
2019-01-18T10:35:43.640Z,99718.86
2019-01-18T10:38:13.096Z,99715.89
2019-01-18T10:40:42.510Z,99712.02
2019-01-18T10:43:12.019Z,99715.77
2019-01-18T10:45:41.588Z,99713.09
2019-01-18T10:48:11.110Z,99710.31
2019-01-18T10:50:40.643Z,99709.72
2019-01-18T10:53:10.340Z,99700.03
2019-01-18T10:55:39.950Z,99690.97
2019-01-18T10:58:09.504Z,99683.72
2019-01-18T11:00:39.000Z,99683.43
2019-01-18T11:03:09.114Z,99681.65
2019-01-18T11:05:38.760Z,99670.69
2019-01-18T11:08:08.192Z,99666.53
2019-01-18T11:10:37.819Z,99656.25
2019-01-18T11:13:07.305Z,99656.47
2019-01-18T11:15:36.775Z,99653.85
2019-01-18T11:18:07.346Z,99652.13
2019-01-18T11:21:29.722Z,99641.72
2019-01-18T11:23:59.135Z,99645.52
2019-01-18T11:26:28.832Z,99641.06
2019-01-18T11:28:58.361Z,99633.09
2019-01-18T11:31:27.818Z,99631.97
2019-01-18T11:33:57.321Z,99630.52
2019-01-18T11:36:26.921Z,99630.08
2019-01-18T11:38:56.532Z,99628.33
2019-01-18T11:41:26.185Z,99627.86
2019-01-18T11:43:55.689Z,99632.16
2019-01-18T11:46:25.145Z,99629.20
2019-01-18T11:48:54.562Z,99632.84
2019-01-18T11:51:24.822Z,99628.66
2019-01-18T11:53:54.287Z,99626.43
2019-01-18T11:56:24.857Z,99619.83
2019-01-18T11:58:54.414Z,99619.41
2019-01-18T12:01:23.991Z,99618.63
2019-01-18T12:03:53.424Z,99615.53
2019-01-18T12:06:23.026Z,99613.26
2019-01-18T12:08:52.535Z,99616.09
2019-01-18T12:11:21.925Z,99614.41
2019-01-18T12:13:51.371Z,99609.88
2019-01-18T12:16:20.860Z,99607.56
2019-01-18T12:18:50.239Z,99605.55
2019-01-18T12:21:19.722Z,99596.25
2019-01-18T12:23:49.245Z,99564.21
2019-01-18T12:26:18.668Z,99603.42
2019-01-18T12:28:48.172Z,99601.27
2019-01-18T12:31:17.631Z,99595.06
2019-01-18T12:33:47.102Z,99593.55
2019-01-18T12:36:16.536Z,99594.41
2019-01-18T12:38:46.010Z,99588.69
2019-01-18T12:41:15.423Z,99589.42
2019-01-18T12:43:44.811Z,99586.47
2019-01-18T12:46:14.299Z,99587.81
2019-01-18T12:48:43.763Z,99589.86
2019-01-18T12:51:13.204Z,99580.02
2019-01-18T12:53:42.674Z,99587.08
2019-01-18T12:56:12.169Z,99587.22
2019-01-18T12:58:41.564Z,99586.58
2019-01-18T13:01:11.076Z,99591.64
2019-01-18T13:03:40.577Z,99589.19
2019-01-18T13:06:09.989Z,99588.89
2019-01-18T13:08:39.399Z,99591.83
2019-01-18T13:11:08.858Z,99586.76
2019-01-18T13:13:38.463Z,99583.59
2019-01-18T13:16:32.745Z,99582.83
2019-01-18T13:19:08.614Z,99584.73
2019-01-18T13:21:38.064Z,99588.08
2019-01-18T13:24:07.470Z,99591.98
2019-01-18T13:26:36.921Z,99599.05
2019-01-18T13:29:06.426Z,99591.86
2019-01-18T13:31:35.880Z,99589.86
2019-01-18T13:34:05.463Z,99600.03
2019-01-18T13:36:34.959Z,99606.50
2019-01-18T13:39:06.424Z,99602.14
2019-01-18T13:41:36.086Z,99603.89
2019-01-18T13:44:05.634Z,99601.90
2019-01-18T13:46:35.088Z,99607.34
2019-01-18T13:49:04.523Z,99610.31
2019-01-18T13:51:34.035Z,99616.21
2019-01-18T13:54:03.632Z,99616.59
2019-01-18T13:56:33.057Z,99614.11
2019-01-18T13:59:02.661Z,99615.73
2019-01-18T14:01:32.091Z,99610.27
2019-01-18T14:04:01.563Z,99607.32
2019-01-18T14:06:31.053Z,99612.83
2019-01-18T14:09:00.585Z,99605.17
2019-01-18T14:11:30.152Z,99601.39
2019-01-18T14:13:59.548Z,99605.73
2019-01-18T14:16:29.157Z,99606.64
2019-01-18T14:18:58.591Z,99597.87
2019-01-18T14:21:28.083Z,99602.65
2019-01-18T14:23:57.541Z,99606.42
2019-01-18T14:26:26.956Z,99604.50
2019-01-18T14:28:56.381Z,99600.53
2019-01-18T14:31:25.831Z,99600.30
2019-01-18T14:33:55.333Z,99595.78
2019-01-18T14:36:24.758Z,99598.53
2019-01-18T14:38:54.252Z,99593.42
2019-01-18T14:41:23.714Z,99600.04
2019-01-18T14:43:53.322Z,99597.25
2019-01-18T14:46:22.794Z,99601.88
2019-01-18T14:48:52.298Z,99605.14
2019-01-18T14:51:21.774Z,99607.78
2019-01-18T14:53:51.230Z,99604.35
2019-01-18T14:56:20.719Z,99615.36
2019-01-18T14:58:50.234Z,99613.08
2019-01-18T15:01:19.597Z,99614.66
2019-01-18T15:03:49.104Z,99611.72
2019-01-18T15:06:18.520Z,99623.34
2019-01-18T15:08:47.954Z,99623.38
2019-01-18T15:11:17.469Z,99627.92
2019-01-18T15:13:46.968Z,99626.45
2019-01-18T15:16:16.384Z,99628.48
2019-01-18T15:18:45.877Z,99621.47
2019-01-18T15:21:15.299Z,99628.72
2019-01-18T15:23:44.689Z,99628.03
2019-01-18T15:26:18.376Z,99622.84
2019-01-18T15:28:45.468Z,99628.05
2019-01-18T15:31:14.914Z,99629.20
2019-01-18T15:33:44.288Z,99627.37
2019-01-18T15:36:13.828Z,99634.36
2019-01-18T15:38:43.234Z,99635.22
2019-01-18T15:41:12.873Z,99638.71
2019-01-18T15:43:42.363Z,99640.20
2019-01-18T15:46:11.892Z,99638.33
2019-01-18T15:48:41.311Z,99639.66
2019-01-18T15:51:11.271Z,99641.13
2019-01-18T15:53:40.737Z,99637.94
2019-01-18T15:56:10.129Z,99641.37
2019-01-18T15:58:39.622Z,99642.52
2019-01-18T16:01:09.943Z,99638.33
2019-01-18T16:03:39.414Z,99637.61
2019-01-18T16:06:08.904Z,99640.13
2019-01-18T16:08:38.455Z,99627.76
2019-01-18T16:11:07.882Z,99632.72
2019-01-18T16:13:37.355Z,99640.39
2019-01-18T16:16:38.071Z,99639.40
2019-01-18T16:19:07.553Z,99647.56
2019-01-18T16:21:37.094Z,99648.38
2019-01-18T16:24:06.527Z,99657.52
2019-01-18T16:26:36.046Z,99650.05
2019-01-18T16:29:05.585Z,99652.03
2019-01-18T16:31:35.003Z,99646.04
2019-01-18T16:34:04.486Z,99649.86
2019-01-18T16:36:33.975Z,99649.02
2019-01-18T16:39:05.446Z,99648.93
2019-01-18T16:41:34.844Z,99650.26
2019-01-18T16:44:04.300Z,99653.19
2019-01-18T16:46:33.839Z,99644.44
2019-01-18T16:49:03.483Z,99646.61
2019-01-18T16:51:32.955Z,99655.75
2019-01-18T16:54:02.370Z,99655.75
2019-01-18T16:56:31.906Z,99656.05
2019-01-18T16:59:01.430Z,99659.30
2019-01-18T17:01:30.896Z,99653.30
2019-01-18T17:04:00.405Z,99655.22
2019-01-18T17:06:29.826Z,99618.52
2019-01-18T17:08:59.280Z,99659.77
2019-01-18T17:11:28.760Z,99663.07
2019-01-18T17:13:58.168Z,99659.94
2019-01-18T17:16:27.782Z,99652.90
2019-01-18T17:18:57.495Z,99657.54
2019-01-18T17:21:26.934Z,99661.52
2019-01-18T17:23:56.429Z,99665.83
2019-01-18T17:26:25.935Z,99659.43
2019-01-18T17:28:55.393Z,99661.16
2019-01-18T17:31:24.910Z,99667.27
2019-01-18T17:33:54.507Z,99669.88
2019-01-18T17:37:01.269Z,99671.90
2019-01-18T17:39:54.012Z,99670.86
2019-01-18T17:42:51.285Z,99671.55
2019-01-18T17:46:09.458Z,99677.48
2019-01-18T17:49:08.246Z,99667.03
2019-01-18T17:52:14.062Z,99677.14
2019-01-18T17:54:53.475Z,99670.03
2019-01-18T17:57:52.049Z,99668.99
2019-01-18T18:01:05.089Z,99674.64
2019-01-18T18:04:11.464Z,99674.83
2019-01-18T18:07:33.617Z,99674.91
2019-01-18T18:10:32.441Z,99670.58
2019-01-18T18:13:51.526Z,99677.30
2019-01-18T18:16:50.346Z,99666.58
2019-01-18T18:19:59.510Z,99672.55
2019-01-18T18:23:03.016Z,99666.83
2019-01-18T18:26:28.804Z,99674.23
2019-01-18T18:29:26.471Z,99670.09
2019-01-18T18:32:40.133Z,99667.02
2019-01-18T18:35:38.894Z,99671.19
2019-01-18T18:38:49.411Z,99670.14
2019-01-18T18:41:52.819Z,99668.20
2019-01-18T18:45:01.681Z,99667.98
2019-01-18T18:48:07.220Z,99671.27
2019-01-18T18:51:12.512Z,99671.84
2019-01-18T18:54:22.659Z,99664.45
2019-01-18T18:57:25.392Z,99660.55
2019-01-18T19:00:34.855Z,99674.36
2019-01-18T19:03:47.390Z,99672.28
2019-01-18T19:07:00.394Z,99673.38
2019-01-18T19:10:03.903Z,99678.08
2019-01-18T19:12:50.823Z,99672.45
2019-01-18T19:15:50.143Z,99679.34
2019-01-18T19:19:10.077Z,99685.81
2019-01-18T19:22:05.734Z,99683.78
2019-01-18T19:25:11.312Z,99687.60
2019-01-18T19:28:18.686Z,99694.52
2019-01-18T19:31:04.119Z,99701.19
2019-01-18T19:34:26.828Z,99709.91
2019-01-18T19:37:35.975Z,99712.77
2019-01-18T19:40:54.795Z,99709.25
2019-01-18T19:43:44.154Z,99715.67
2019-01-18T19:46:51.673Z,99712.66
2019-01-18T19:49:54.641Z,99712.81
2019-01-18T19:53:01.689Z,99710.44
2019-01-18T19:55:57.471Z,99715.36
2019-01-18T19:59:03.915Z,99714.44
2019-01-18T20:02:02.750Z,99720.87
2019-01-18T20:05:22.450Z,99722.15
2019-01-18T20:08:30.046Z,99724.01
2019-01-18T20:11:56.050Z,99720.42
2019-01-18T20:15:05.275Z,99725.28
2019-01-18T20:18:06.763Z,99726.69
2019-01-18T20:21:03.778Z,99739.75
2019-01-18T20:24:17.557Z,99739.75
2019-01-18T20:27:31.321Z,99742.55
2019-01-18T20:30:18.043Z,99739.04
2019-01-18T20:33:27.086Z,99739.95
2019-01-18T20:37:01.733Z,99742.45
2019-01-18T20:40:05.751Z,99745.94
2019-01-18T20:43:18.939Z,99755.22
2019-01-18T20:46:30.400Z,99760.44
2019-01-18T20:49:29.009Z,99760.86
2019-01-18T20:52:35.369Z,99757.23
2019-01-18T20:55:54.293Z,99757.78
2019-01-18T20:59:04.238Z,99762.32
2019-01-18T21:02:20.617Z,99768.96
2019-01-18T21:05:15.990Z,99763.91
2019-01-18T21:07:59.623Z,99765.98
2019-01-18T21:11:21.447Z,99767.14
2019-01-18T21:14:07.612Z,99764.52
2019-01-18T21:17:26.718Z,99765.23
2019-01-18T21:20:42.927Z,99773.30
2019-01-18T21:23:40.255Z,99774.50
2019-01-18T21:26:16.912Z,99772.52
2019-01-18T21:29:16.757Z,99770.28
2019-01-18T21:32:21.760Z,99771.00
2019-01-18T21:35:26.320Z,99769.61
2019-01-18T21:38:07.243Z,99772.34
2019-01-18T21:41:07.561Z,99774.19
2019-01-18T21:44:16.061Z,99775.08
2019-01-18T21:47:47.259Z,99776.05
2019-01-18T21:50:47.271Z,99776.59
2019-01-18T21:53:50.845Z,99777.02
2019-01-18T21:56:53.534Z,99786.13
2019-01-18T22:00:05.916Z,99777.82
2019-01-18T22:03:12.436Z,99789.56
2019-01-18T22:06:18.681Z,99788.18
2019-01-18T22:09:23.161Z,99784.25
2019-01-18T22:12:17.768Z,99795.75
2019-01-18T22:15:16.443Z,99791.66
2019-01-18T22:18:10.865Z,99803.11
2019-01-18T22:20:48.702Z,99799.25
2019-01-18T22:23:29.938Z,99796.88
2019-01-18T22:27:01.270Z,99793.53
2019-01-18T22:30:27.081Z,99800.89
2019-01-18T22:33:17.597Z,99806.28
2019-01-18T22:36:20.108Z,99802.19
2019-01-18T22:39:05.414Z,99815.48
2019-01-18T22:42:31.209Z,99814.69
2019-01-18T22:45:56.929Z,99813.03
2019-01-18T22:49:02.118Z,99808.95
2019-01-18T22:52:08.459Z,99809.55
2019-01-18T22:55:08.563Z,99805.48
2019-01-18T22:58:22.060Z,99800.67
2019-01-18T23:01:24.326Z,99807.53
2019-01-18T23:04:04.065Z,99812.01
2019-01-18T23:07:13.230Z,99811.03
2019-01-18T23:10:22.697Z,99814.79
2019-01-18T23:13:28.972Z,99828.63
2019-01-18T23:16:47.630Z,99821.28
2019-01-18T23:19:56.417Z,99827.07
2019-01-18T23:23:01.920Z,99825.12
2019-01-18T23:26:27.399Z,99827.77
2019-01-18T23:29:14.824Z,99820.91
2019-01-18T23:32:16.700Z,99821.53
2019-01-18T23:35:22.973Z,99828.13
2019-01-18T23:38:28.432Z,99826.58
2019-01-18T23:41:47.763Z,99825.34
2019-01-18T23:44:57.932Z,99829.20
2019-01-18T23:47:50.357Z,99832.20
2019-01-18T23:51:06.813Z,99828.11
2019-01-18T23:54:08.397Z,99823.17
2019-01-18T23:57:02.463Z,99820.38
